Time;durP1;ratioP1;P1;durP2;ratioP2;P2;SDS_P1;SDS_P2;PMS_P1;PMS_P2;Temp;Humidity;BMP_temperature;BMP_pressure;BME280_temperature;BME280_humidity;BME280_pressure;Samples;Min_cycle;Max_cycle;Signal;HPM_P1;HPM_P2
2022/10/04 00:01:31;;;;;;;6.68;4.20;;;15.40;99.90;;;;;;4984775;28;20206;-85
2022/10/04 00:04:25;;;;;;;8.38;4.07;;;15.30;99.90;;;;;;4984867;28;20022;-86
2022/10/04 00:07:12;;;;;;;9.43;4.43;;;15.30;99.90;;;;;;4976675;28;20347;-86
2022/10/04 00:09:44;;;;;;;9.32;4.30;;;15.30;99.90;;;;;;4967150;28;20306;-86
2022/10/04 00:12:38;;;;;;;9.18;4.95;;;15.30;99.90;;;;;;4984855;28;20025;-86
2022/10/04 00:15:27;;;;;;;9.05;4.88;;;15.30;99.90;;;;;;4978717;28;20034;-85
2022/10/04 00:18:01;;;;;;;8.85;4.10;;;15.20;99.90;;;;;;4984175;28;20023;-87
2022/10/04 00:20:54;;;;;;;7.53;4.90;;;15.10;99.90;;;;;;4984672;28;20007;-86
2022/10/04 00:23:27;;;;;;;6.80;4.30;;;15.10;99.90;;;;;;4980707;28;20058;-87
2022/10/04 00:25:54;;;;;;;7.93;4.43;;;15.10;99.90;;;;;;4983511;28;20030;-87
2022/10/04 00:28:20;;;;;;;6.45;4.00;;;15.10;99.90;;;;;;4984573;28;20066;-87
2022/10/04 00:31:13;;;;;;;6.38;3.80;;;15.10;99.90;;;;;;4967435;28;20023;-87
2022/10/04 00:33:42;;;;;;;5.38;3.97;;;15.00;99.90;;;;;;4967537;28;20062;-87
2022/10/04 00:36:23;;;;;;;8.52;4.15;;;15.00;99.90;;;;;;4967160;28;20041;-87
2022/10/04 00:39:05;;;;;;;7.82;3.92;;;15.00;99.90;;;;;;4984556;28;20241;-88
2022/10/04 00:42:00;;;;;;;9.38;4.40;;;15.00;99.90;;;;;;4984255;28;20033;-87
2022/10/04 00:44:41;;;;;;;5.57;4.18;;;15.00;99.90;;;;;;4945250;28;20062;-87
2022/10/04 00:47:30;;;;;;;8.55;4.30;;;15.00;99.90;;;;;;4972184;28;20098;-87
2022/10/04 00:50:25;;;;;;;6.30;3.97;;;14.90;99.90;;;;;;4984201;28;20192;-88
2022/10/04 00:52:55;;;;;;;5.63;4.00;;;14.90;99.90;;;;;;4965716;28;20339;-88
2022/10/04 00:55:34;;;;;;;8.77;4.38;;;14.90;99.90;;;;;;4964188;29;20035;-88
2022/10/04 00:58:04;;;;;;;10.52;4.07;;;14.80;99.90;;;;;;4965083;29;20019;-88
2022/10/04 01:00:34;;;;;;;6.10;3.83;;;14.80;99.90;;;;;;4965118;28;20015;-88
2022/10/04 01:03:29;;;;;;;5.80;4.40;;;14.80;99.90;;;;;;4964830;29;20315;-88
2022/10/04 01:06:02;;;;;;;6.53;4.50;;;14.80;99.90;;;;;;4963656;29;20047;-88
2022/10/04 01:08:35;;;;;;;5.93;4.05;;;14.80;99.90;;;;;;4964909;29;20030;-88
2022/10/04 01:11:05;;;;;;;7.03;4.20;;;14.70;99.90;;;;;;4964490;29;20073;-87
2022/10/04 01:13:41;;;;;;;8.55;4.13;;;14.70;99.90;;;;;;4964202;29;20042;-87
2022/10/04 01:16:17;;;;;;;9.68;4.18;;;14.70;99.90;;;;;;4964213;29;20023;-87
2022/10/04 01:18:43;;;;;;;9.05;4.30;;;14.60;99.90;;;;;;4964342;29;20034;-88
2022/10/04 01:21:29;;;;;;;8.95;4.03;;;14.60;99.90;;;;;;4964003;29;20019;-88
2022/10/04 01:23:57;;;;;;;8.75;4.03;;;14.60;99.90;;;;;;4944120;29;20066;-87
2022/10/04 01:26:29;;;;;;;5.60;3.78;;;14.60;99.90;;;;;;4964442;29;20303;-87
2022/10/04 01:29:08;;;;;;;7.15;3.88;;;14.60;99.90;;;;;;4952541;29;20027;-87
2022/10/04 01:31:37;;;;;;;5.30;3.85;;;14.60;99.90;;;;;;4962717;29;20026;-87
2022/10/04 01:34:04;;;;;;;6.28;3.67;;;14.50;99.90;;;;;;4964195;29;20031;-87
2022/10/04 01:36:30;;;;;;;5.85;3.90;;;14.50;99.90;;;;;;4959308;29;20043;-85
2022/10/04 01:38:56;;;;;;;6.55;3.90;;;14.50;99.90;;;;;;4960357;28;20035;-86
2022/10/04 01:41:37;;;;;;;8.18;3.63;;;14.50;99.90;;;;;;4963361;29;20066;-86
2022/10/04 01:44:06;;;;;;;6.03;4.32;;;14.50;99.90;;;;;;4946542;29;20023;-86
2022/10/04 01:46:35;;;;;;;8.18;3.70;;;14.50;99.90;;;;;;4963461;29;20090;-87
2022/10/04 01:49:06;;;;;;;12.25;3.90;;;14.50;99.90;;;;;;4964091;28;20023;-87
2022/10/04 01:51:58;;;;;;;7.60;3.90;;;14.50;99.90;;;;;;4962783;28;20066;-87
2022/10/04 01:54:33;;;;;;;5.50;3.92;;;14.50;99.90;;;;;;4984535;28;20227;-87
2022/10/04 01:57:23;;;;;;;8.32;4.22;;;14.40;99.90;;;;;;4996726;28;20015;-87
2022/10/04 02:00:00;;;;;;;5.07;3.63;;;14.40;99.90;;;;;;4993470;28;20102;-87
2022/10/04 02:02:34;;;;;;;5.82;3.95;;;14.40;99.90;;;;;;4995961;28;20029;-87
2022/10/04 02:05:01;;;;;;;6.20;3.95;;;14.40;99.90;;;;;;4989580;28;20029;-86
2022/10/04 02:07:31;;;;;;;5.40;3.45;;;14.30;99.90;;;;;;4996694;28;20050;-87
2022/10/04 02:10:04;;;;;;;6.63;3.55;;;14.40;99.90;;;;;;4988078;28;20019;-87
2022/10/04 02:12:30;;;;;;;7.80;4.20;;;14.30;99.90;;;;;;4995516;28;20034;-86
2022/10/04 02:15:00;;;;;;;5.75;4.63;;;14.30;99.90;;;;;;4994798;28;20086;-87
2022/10/04 02:17:29;;;;;;;5.50;3.78;;;14.30;99.90;;;;;;4985996;28;20023;-87
2022/10/04 02:19:56;;;;;;;6.95;3.80;;;14.30;99.90;;;;;;4982434;28;20014;-88
2022/10/04 02:22:24;;;;;;;7.30;3.80;;;14.30;99.90;;;;;;4983157;28;20019;-87
2022/10/04 02:24:52;;;;;;;5.35;3.70;;;14.30;99.90;;;;;;4983119;28;20021;-87
2022/10/04 02:27:17;;;;;;;5.47;3.83;;;14.20;99.90;;;;;;4982893;28;20019;-87
2022/10/04 02:29:43;;;;;;;4.85;3.53;;;14.30;99.90;;;;;;4983215;28;20109;-87
2022/10/04 02:34:55;;;;;;;4.97;3.40;;;14.20;99.90;;;;;;4979282;28;20033;-88
2022/10/04 02:37:24;;;;;;;5.13;3.40;;;14.20;99.90;;;;;;4982668;28;20255;-88
2022/10/04 02:40:08;;;;;;;6.03;3.88;;;14.20;99.90;;;;;;4981445;28;20027;-88
2022/10/04 02:42:46;;;;;;;7.40;4.00;;;14.20;99.90;;;;;;4981690;28;20192;-88
2022/10/04 02:45:25;;;;;;;6.00;4.10;;;14.20;99.90;;;;;;4982977;28;20326;-88
2022/10/04 02:48:03;;;;;;;4.85;3.70;;;14.10;99.90;;;;;;4977118;28;20007;-88
2022/10/04 02:50:42;;;;;;;5.82;3.72;;;14.10;99.90;;;;;;4963606;28;20046;-87
2022/10/04 02:53:25;;;;;;;4.15;3.47;;;14.10;99.90;;;;;;4979079;28;20349;-88
2022/10/04 02:55:54;;;;;;;6.60;4.05;;;14.10;99.90;;;;;;4982346;28;20018;-88
2022/10/04 02:58:22;;;;;;;5.68;4.28;;;14.10;99.90;;;;;;4982141;28;20111;-88
2022/10/04 03:00:50;;;;;;;7.13;3.85;;;14.10;99.90;;;;;;4981122;28;20341;-88
2022/10/04 03:03:30;;;;;;;4.50;3.72;;;14.10;99.90;;;;;;4982389;28;20123;-88
2022/10/04 03:06:31;;;;;;;5.13;4.13;;;14.10;99.90;;;;;;4982450;28;20023;-88
2022/10/04 03:09:04;;;;;;;9.23;3.85;;;14.10;99.90;;;;;;4960798;28;20042;-88
2022/10/04 03:11:39;;;;;;;4.72;3.67;;;14.10;99.90;;;;;;4982135;28;20007;-87
2022/10/04 03:14:15;;;;;;;4.28;3.88;;;14.10;99.90;;;;;;4975023;28;20027;-88
2022/10/04 03:16:44;;;;;;;4.63;4.00;;;14.10;99.90;;;;;;4980928;28;20062;-88
2022/10/04 03:19:10;;;;;;;6.20;3.97;;;14.10;99.90;;;;;;4980419;28;20027;-89
2022/10/04 03:21:37;;;;;;;5.40;3.85;;;14.10;99.90;;;;;;4981631;28;20065;-88
2022/10/04 03:24:05;;;;;;;3.78;3.33;;;14.00;99.90;;;;;;4981892;28;20323;-88
2022/10/04 03:26:44;;;;;;;5.95;4.43;;;14.00;99.90;;;;;;4982192;28;20343;-87
2022/10/04 03:29:12;;;;;;;4.72;3.60;;;14.00;99.90;;;;;;4981437;28;20305;-88
2022/10/04 03:31:48;;;;;;;6.55;3.92;;;14.00;99.90;;;;;;4981956;28;20022;-87
2022/10/04 03:34:20;;;;;;;4.25;3.47;;;14.00;99.90;;;;;;4981389;28;20434;-87
2022/10/04 03:36:48;;;;;;;6.30;3.70;;;14.00;99.90;;;;;;4981827;28;20062;-87
2022/10/04 03:39:29;;;;;;;6.07;3.80;;;13.90;99.90;;;;;;4979229;28;20053;-87
2022/10/04 03:41:57;;;;;;;7.22;3.85;;;13.90;99.90;;;;;;4982081;28;20018;-88
2022/10/04 03:44:23;;;;;;;5.82;3.50;;;13.90;99.90;;;;;;4982050;28;20018;-88
2022/10/04 03:46:49;;;;;;;5.53;3.55;;;13.90;99.90;;;;;;4981505;28;20098;-88
2022/10/04 03:49:31;;;;;;;4.95;3.70;;;13.80;99.90;;;;;;4981537;28;20023;-88
2022/10/04 03:51:58;;;;;;;5.88;3.78;;;13.80;99.90;;;;;;4981578;28;20089;-87
2022/10/04 03:54:26;;;;;;;6.22;3.60;;;13.80;99.90;;;;;;4984739;28;20018;-88
2022/10/04 03:56:53;;;;;;;5.47;3.85;;;13.80;99.90;;;;;;4981224;28;20026;-87
2022/10/04 03:59:22;;;;;;;9.15;3.80;;;13.80;99.90;;;;;;4982574;28;20019;-87
2022/10/04 04:01:53;;;;;;;4.30;3.90;;;13.80;99.90;;;;;;4979079;28;20035;-87
2022/10/04 04:04:25;;;;;;;6.00;3.60;;;13.70;99.90;;;;;;4981461;28;20042;-88
2022/10/04 04:07:05;;;;;;;4.68;4.13;;;13.70;99.90;;;;;;4985428;28;20096;-87
2022/10/04 04:09:52;;;;;;;5.53;3.70;;;13.70;99.90;;;;;;4985450;28;20069;-87
2022/10/04 04:12:41;;;;;;;4.10;3.65;;;13.60;99.90;;;;;;4985211;28;20041;-87
2022/10/04 04:15:12;;;;;;;5.63;3.50;;;13.60;99.90;;;;;;4984578;28;20030;-87
2022/10/04 04:17:44;;;;;;;4.95;3.83;;;13.60;99.90;;;;;;4985137;28;20030;-87
2022/10/04 04:20:30;;;;;;;7.15;3.85;;;13.60;99.90;;;;;;4984509;28;20059;-87
2022/10/04 04:23:04;;;;;;;4.88;3.88;;;13.50;99.90;;;;;;4983286;28;20085;-88
2022/10/04 04:25:33;;;;;;;4.30;3.40;;;13.50;99.90;;;;;;4984511;28;20019;-87
2022/10/04 04:28:06;;;;;;;6.60;3.67;;;13.50;99.90;;;;;;4984907;28;20062;-87
2022/10/04 04:30:36;;;;;;;8.25;3.85;;;13.50;99.90;;;;;;4985188;28;20143;-86
2022/10/04 04:33:07;;;;;;;6.60;4.35;;;13.40;99.90;;;;;;4980321;28;20327;-88
2022/10/04 04:35:35;;;;;;;4.50;3.63;;;13.40;99.90;;;;;;4978923;28;20014;-88
2022/10/04 04:38:18;;;;;;;6.22;4.15;;;13.40;99.90;;;;;;4982464;28;20274;-88
2022/10/04 04:40:44;;;;;;;5.30;4.25;;;13.50;99.90;;;;;;4984524;28;20026;-88
2022/10/04 04:43:18;;;;;;;4.22;3.58;;;13.50;99.90;;;;;;4983918;28;20153;-88
2022/10/04 04:45:48;;;;;;;6.63;3.65;;;13.40;99.90;;;;;;4984420;28;20596;-87
2022/10/04 04:48:16;;;;;;;5.22;3.80;;;13.40;99.90;;;;;;4983935;28;20035;-87
2022/10/04 04:50:46;;;;;;;5.07;3.90;;;13.40;99.90;;;;;;4984881;28;20019;-88
2022/10/04 04:53:21;;;;;;;5.45;4.00;;;13.40;99.90;;;;;;4983595;28;20051;-87
2022/10/04 04:55:49;;;;;;;;;;;13.40;99.90;;;;;;4982903;28;20239;-88
2022/10/04 04:58:28;;;;;;;5.68;3.88;;;13.40;99.90;;;;;;4984053;28;19909;-87
2022/10/04 05:01:27;;;;;;;4.38;3.80;;;13.30;99.90;;;;;;4984476;28;20023;-87
2022/10/04 05:04:21;;;;;;;6.03;4.18;;;13.30;99.90;;;;;;4958042;28;20318;-87
2022/10/04 05:07:03;;;;;;;7.95;4.25;;;13.30;99.90;;;;;;4983807;28;20027;-87
2022/10/04 05:09:30;;;;;;;4.75;3.65;;;13.30;99.90;;;;;;4983102;28;20432;-88
2022/10/04 05:12:28;;;;;;;6.57;3.80;;;13.30;99.90;;;;;;4980486;28;20476;-87
2022/10/04 05:14:56;;;;;;;5.18;4.18;;;13.30;99.90;;;;;;4951483;28;20054;-87
2022/10/04 05:17:30;;;;;;;6.68;4.05;;;13.20;99.90;;;;;;4956017;28;20025;-87
2022/10/04 05:19:58;;;;;;;4.30;3.90;;;13.20;99.90;;;;;;4974812;28;20082;-88
2022/10/04 05:22:25;;;;;;;11.88;4.10;;;13.30;99.90;;;;;;4974707;28;20034;-87
2022/10/04 05:24:55;;;;;;;6.47;4.03;;;13.20;99.90;;;;;;4974599;28;20098;-86
2022/10/04 05:27:36;;;;;;;4.70;3.90;;;13.20;99.90;;;;;;4966672;28;20069;-86
2022/10/04 05:30:08;;;;;;;6.35;3.90;;;13.20;99.90;;;;;;4972409;28;20019;-86
2022/10/04 05:33:01;;;;;;;5.18;4.28;;;13.10;99.90;;;;;;4972657;28;20117;-87
2022/10/04 05:35:37;;;;;;;4.85;4.35;;;13.20;99.90;;;;;;4951785;29;20114;-88
2022/10/04 05:38:32;;;;;;;6.68;4.88;;;13.10;99.90;;;;;;4967287;28;20399;-87
2022/10/04 05:41:03;;;;;;;3.85;3.45;;;13.10;99.90;;;;;;4972766;28;20030;-87
2022/10/04 05:43:43;;;;;;;8.48;4.20;;;13.10;99.90;;;;;;4974941;28;20023;-87
2022/10/04 05:46:20;;;;;;;6.53;4.38;;;13.10;99.90;;;;;;4979352;28;20035;-88
2022/10/04 05:48:51;;;;;;;5.90;4.88;;;13.10;99.90;;;;;;4979166;28;20022;-88
2022/10/04 05:51:36;;;;;;;7.60;4.65;;;13.10;99.90;;;;;;4976774;28;20117;-88
2022/10/04 05:54:03;;;;;;;7.60;4.30;;;13.10;99.90;;;;;;4978891;28;20039;-88
2022/10/04 05:56:54;;;;;;;6.70;4.22;;;13.10;99.90;;;;;;4965549;28;20046;-88
2022/10/04 05:59:42;;;;;;;7.97;4.32;;;13.20;99.90;;;;;;4965870;28;20184;-88
2022/10/04 06:02:35;;;;;;;5.15;4.03;;;13.20;99.90;;;;;;4977867;28;20029;-88
2022/10/04 06:05:19;;;;;;;5.53;4.20;;;13.10;99.90;;;;;;4982903;28;20030;-87
2022/10/04 06:07:59;;;;;;;5.25;4.38;;;13.10;99.90;;;;;;4982350;28;20027;-88
2022/10/04 06:10:49;;;;;;;5.10;3.80;;;13.10;99.90;;;;;;4977320;28;20082;-84
2022/10/04 06:13:27;;;;;;;5.57;4.55;;;13.10;99.90;;;;;;4980254;28;20058;-84
2022/10/04 06:16:18;;;;;;;8.73;4.13;;;13.10;99.90;;;;;;4973793;28;20087;-84
2022/10/04 06:19:10;;;;;;;5.50;3.80;;;13.10;99.90;;;;;;4972972;28;20399;-84
2022/10/04 06:21:57;;;;;;;6.93;4.20;;;13.10;99.90;;;;;;4955836;28;20098;-84
2022/10/04 06:24:31;;;;;;;5.90;4.10;;;13.10;99.90;;;;;;4973976;28;20038;-84
2022/10/04 06:27:09;;;;;;;5.70;4.70;;;13.10;99.90;;;;;;4973560;28;20117;-84
2022/10/04 06:29:43;;;;;;;7.90;4.32;;;13.10;99.90;;;;;;4970967;28;20077;-84
2022/10/04 06:32:39;;;;;;;7.53;4.80;;;13.20;99.90;;;;;;4970827;28;20026;-85
2022/10/04 06:35:05;;;;;;;6.70;4.05;;;13.20;99.90;;;;;;4970994;28;20033;-85
2022/10/04 06:37:40;;;;;;;6.50;3.92;;;13.20;99.90;;;;;;4971195;28;20027;-84
2022/10/04 06:40:26;;;;;;;7.03;4.47;;;13.20;99.90;;;;;;4971028;28;20082;-84
2022/10/04 06:43:22;;;;;;;7.13;4.35;;;13.30;99.90;;;;;;4970746;28;20077;-84
2022/10/04 06:46:05;;;;;;;6.57;4.30;;;13.40;99.90;;;;;;4970764;28;20530;-84
2022/10/04 06:48:39;;;;;;;5.20;4.30;;;13.40;99.90;;;;;;4970838;28;20049;-84
2022/10/04 06:51:37;;;;;;;5.82;3.95;;;13.50;99.90;;;;;;4969559;28;20476;-85
2022/10/04 06:54:23;;;;;;;6.20;4.07;;;13.60;99.90;;;;;;4970801;28;20045;-85
2022/10/04 06:57:07;;;;;;;6.00;4.05;;;13.70;99.90;;;;;;4953429;28;20062;-85
2022/10/04 07:00:03;;;;;;;5.93;3.88;;;13.70;99.90;;;;;;4969291;28;20096;-84
2022/10/04 07:03:01;;;;;;;4.10;3.70;;;13.80;99.90;;;;;;4952923;28;20110;-85
2022/10/04 07:05:54;;;;;;;4.13;3.60;;;13.90;99.90;;;;;;4949121;28;20424;-84
2022/10/04 07:08:49;;;;;;;5.00;3.13;;;14.00;99.90;;;;;;4970641;28;20027;-84
2022/10/04 07:11:23;;;;;;;6.50;3.95;;;14.00;99.90;;;;;;4967452;28;20043;-84
2022/10/04 07:13:59;;;;;;;6.55;3.63;;;14.10;99.90;;;;;;4953138;28;20407;-84
2022/10/04 07:16:36;;;;;;;5.10;3.97;;;14.20;99.90;;;;;;4970918;28;20487;-84
2022/10/04 07:19:30;;;;;;;4.57;3.92;;;14.20;99.90;;;;;;4971035;28;20043;-84
2022/10/04 07:22:11;;;;;;;7.65;3.80;;;14.40;99.90;;;;;;4957834;28;20136;-84
2022/10/04 07:25:01;;;;;;;5.53;3.63;;;14.50;99.90;;;;;;4970528;28;20106;-85
2022/10/04 07:31:02;;;;;;;5.70;4.07;;;14.60;99.90;;;;;;4969047;28;20045;-84
2022/10/04 07:33:31;;;;;;;5.70;3.40;;;14.70;99.90;;;;;;4974492;28;20042;-84
2022/10/04 07:36:10;;;;;;;8.13;4.00;;;14.80;99.90;;;;;;4973297;28;20034;-84
2022/10/04 07:38:48;;;;;;;10.20;4.20;;;14.90;99.90;;;;;;4974922;28;20097;-84
2022/10/04 07:41:36;;;;;;;8.20;4.18;;;14.90;99.90;;;;;;4974704;28;20475;-85
2022/10/04 07:44:11;;;;;;;6.22;4.15;;;15.00;99.90;;;;;;4974480;28;20035;-84
2022/10/04 07:46:46;;;;;;;5.65;4.07;;;15.10;99.90;;;;;;4974496;28;20031;-85
2022/10/04 07:49:18;;;;;;;6.28;3.60;;;15.20;99.90;;;;;;4974623;28;20248;-85
2022/10/04 07:52:17;;;;;;;6.22;3.33;;;15.30;99.90;;;;;;4974042;28;20027;-85
2022/10/04 07:55:01;;;;;;;6.40;3.67;;;15.30;99.90;;;;;;4969927;28;20035;-85
2022/10/04 07:57:50;;;;;;;6.90;3.63;;;15.40;99.90;;;;;;4973986;28;20470;-85
2022/10/04 08:00:23;;;;;;;6.45;3.03;;;15.50;99.90;;;;;;4972940;28;20483;-85
2022/10/04 08:03:04;;;;;;;3.40;2.97;;;15.70;99.90;;;;;;4972784;28;20322;-85
2022/10/04 08:05:42;;;;;;;8.18;3.40;;;15.70;99.90;;;;;;4956740;28;20270;-85
2022/10/04 08:08:07;;;;;;;4.57;2.97;;;15.80;99.90;;;;;;4958533;28;20031;-85
2022/10/04 08:10:34;;;;;;;5.60;3.10;;;16.00;99.90;;;;;;4973645;28;20037;-85
2022/10/04 08:13:21;;;;;;;3.65;3.15;;;16.00;99.90;;;;;;4973365;28;20037;-85
2022/10/04 08:15:49;;;;;;;3.88;2.63;;;16.00;99.90;;;;;;4973658;28;20026;-84
2022/10/04 08:18:17;;;;;;;7.43;3.30;;;16.10;99.90;;;;;;4973875;28;20023;-84
2022/10/04 08:20:58;;;;;;;8.43;3.55;;;16.20;99.90;;;;;;4972225;28;20023;-84
2022/10/04 08:23:24;;;;;;;12.20;3.95;;;16.30;99.90;;;;;;4973908;28;20476;-83
2022/10/04 08:25:59;;;;;;;7.75;3.58;;;16.30;99.90;;;;;;4973313;28;20034;-83
2022/10/04 08:32:16;;;;;;;7.63;3.25;;;16.40;99.90;;;;;;4973082;28;20609;-85
2022/10/04 08:35:00;;;;;;;6.20;3.00;;;16.50;99.90;;;;;;4964437;28;20042;-85
2022/10/04 08:37:57;;;;;;;9.30;3.47;;;16.50;99.90;;;;;;4968296;28;20061;-83
2022/10/04 08:40:58;;;;;;;10.77;3.35;;;16.60;99.90;;;;;;4974070;28;20051;-83
2022/10/04 08:43:42;;;;;;;8.55;3.00;;;16.70;99.90;;;;;;4965624;28;20039;-83
2022/10/04 08:46:28;;;;;;;9.45;2.50;;;16.80;99.90;;;;;;4974625;28;20074;-83
2022/10/04 08:49:20;;;;;;;6.25;2.53;;;16.90;99.90;;;;;;4975338;28;20039;-84
2022/10/04 08:52:22;;;;;;;6.97;2.63;;;17.00;99.90;;;;;;4974601;28;20030;-83
2022/10/04 08:55:06;;;;;;;4.75;2.40;;;17.10;99.90;;;;;;4970983;28;20038;-83
2022/10/04 08:58:00;;;;;;;5.70;2.45;;;17.20;99.90;;;;;;4974018;28;20612;-84
2022/10/04 09:00:56;;;;;;;3.08;2.30;;;17.30;99.90;;;;;;4974241;28;20019;-83
2022/10/04 09:04:01;;;;;;;2.97;2.30;;;17.20;99.90;;;;;;4955454;28;20035;-83
2022/10/04 09:06:46;;;;;;;3.80;2.20;;;17.30;99.90;;;;;;4973465;28;20050;-86
2022/10/04 09:09:43;;;;;;;3.50;1.88;;;17.40;99.90;;;;;;4972673;28;20026;-85
2022/10/04 09:12:33;;;;;;;6.18;2.00;;;17.50;99.90;;;;;;4969226;28;20035;-85
2022/10/04 09:15:20;;;;;;;5.03;1.80;;;17.60;99.90;;;;;;4972998;28;20514;-85
2022/10/04 09:18:01;;;;;;;5.30;2.00;;;17.70;99.90;;;;;;4955288;28;20023;-86
2022/10/04 09:20:48;;;;;;;5.32;1.77;;;17.70;99.90;;;;;;4973023;28;20019;-85
2022/10/04 09:23:57;;;;;;;4.63;2.10;;;17.80;99.90;;;;;;4952030;29;20015;-86
2022/10/04 09:26:51;;;;;;;4.63;1.60;;;17.90;99.90;;;;;;4954338;28;20037;-85
2022/10/04 09:29:31;;;;;;;4.65;1.95;;;18.00;99.90;;;;;;4947300;28;20038;-86
2022/10/04 09:32:34;;;;;;;8.82;1.80;;;18.00;99.90;;;;;;4972674;28;20031;-85
2022/10/04 09:35:39;;;;;;;4.03;1.85;;;18.10;99.90;;;;;;4972443;28;20619;-86
2022/10/04 09:38:17;;;;;;;;;;;18.20;99.90;;;;;;4955429;28;20062;-86
2022/10/04 09:40:57;;;;;;;7.25;1.80;;;18.30;99.90;;;;;;4972640;28;19948;-84
2022/10/04 09:43:47;;;;;;;6.78;2.15;;;18.50;99.90;;;;;;4972283;28;20031;-83
2022/10/04 09:46:28;;;;;;;4.53;1.52;;;18.50;99.90;;;;;;4955177;28;20023;-83
2022/10/04 09:49:03;;;;;;;4.63;1.50;;;18.60;99.90;;;;;;4954997;28;20231;-83
2022/10/04 09:51:47;;;;;;;7.00;2.00;;;18.60;99.90;;;;;;4972232;28;20046;-83
2022/10/04 09:54:43;;;;;;;5.30;1.73;;;18.70;99.90;;;;;;4972177;28;20031;-85
2022/10/04 09:57:32;;;;;;;4.20;1.48;;;18.80;99.90;;;;;;4972109;28;20454;-84
2022/10/04 10:00:23;;;;;;;5.78;1.40;;;19.00;99.90;;;;;;4957374;28;20118;-83
2022/10/04 10:02:49;;;;;;;4.43;1.58;;;19.10;99.90;;;;;;4976723;28;20015;-83
2022/10/04 10:05:29;;;;;;;4.30;1.70;;;19.20;99.90;;;;;;4972395;28;20081;-84
2022/10/04 10:07:58;;;;;;;5.97;1.40;;;19.30;99.90;;;;;;4970682;28;20034;-83
2022/10/04 10:14:15;;;;;;;3.88;1.30;;;19.40;99.90;;;;;;4972102;28;20041;-84
2022/10/04 10:16:59;;;;;;;2.47;0.88;;;19.40;99.90;;;;;;4935053;28;20480;-84
2022/10/04 10:19:28;;;;;;;;;;;19.60;99.90;;;;;;4967071;28;20495;-83
2022/10/04 10:22:14;;;;;;;3.17;1.50;;;19.60;99.90;;;;;;4971763;28;20403;-83
2022/10/04 10:25:06;;;;;;;4.07;1.30;;;19.70;99.90;;;;;;4964454;28;20070;-84
2022/10/04 10:28:03;;;;;;;3.40;1.10;;;19.80;99.90;;;;;;4971461;28;20026;-84
2022/10/04 10:30:47;;;;;;;6.22;1.70;;;19.90;99.90;;;;;;4971742;28;20061;-84
2022/10/04 10:33:36;;;;;;;6.93;1.50;;;20.00;99.90;;;;;;4971308;28;20381;-84
2022/10/04 10:36:28;;;;;;;7.50;3.58;;;20.00;99.90;;;;;;4967822;28;20341;-84
2022/10/04 10:39:12;;;;;;;13.98;6.93;;;20.10;99.90;;;;;;4969844;28;20035;-83
2022/10/04 10:42:08;;;;;;;13.07;7.28;;;20.10;99.90;;;;;;4971150;28;20030;-84
2022/10/04 10:44:41;;;;;;;9.20;6.38;;;20.30;99.90;;;;;;4971338;28;20027;-84
2022/10/04 10:47:09;;;;;;;12.98;6.10;;;20.20;99.90;;;;;;4953695;28;20606;-84
2022/10/04 10:49:50;;;;;;;16.70;6.53;;;20.20;99.90;;;;;;4971028;28;20492;-84
2022/10/04 10:52:41;;;;;;;10.80;5.88;;;20.30;99.90;;;;;;4965423;28;20078;-84
2022/10/04 10:55:34;;;;;;;9.27;5.40;;;20.40;99.90;;;;;;4951939;29;20039;-84
2022/10/04 10:58:21;;;;;;;8.38;5.55;;;20.40;99.90;;;;;;4939156;29;20491;-84
2022/10/04 11:01:38;;;;;;;8.10;5.50;;;20.50;99.90;;;;;;4951379;29;20535;-84
2022/10/04 11:04:34;;;;;;;15.55;5.53;;;20.60;99.90;;;;;;4954669;29;20031;-84
2022/10/04 11:07:03;;;;;;;5.57;2.40;;;20.70;99.90;;;;;;4934134;29;20027;-84
2022/10/04 11:09:37;;;;;;;4.70;2.70;;;20.60;99.90;;;;;;4957806;28;20034;-84
2022/10/04 11:12:37;;;;;;;8.40;4.50;;;20.70;99.90;;;;;;4940265;29;20122;-84
2022/10/04 11:15:44;;;;;;;15.20;6.65;;;20.70;99.90;;;;;;4955114;28;20077;-85
2022/10/04 11:18:15;;;;;;;12.90;6.60;;;20.70;99.90;;;;;;4902811;29;20035;-84
2022/10/04 11:21:20;;;;;;;20.52;7.97;;;20.70;99.90;;;;;;4957707;29;20031;-84
2022/10/04 11:24:01;;;;;;;11.25;7.32;;;20.70;99.90;;;;;;4957949;28;20027;-84
2022/10/04 11:26:38;;;;;;;13.93;7.63;;;20.90;99.90;;;;;;4945381;29;20023;-85
2022/10/04 11:29:29;;;;;;;15.40;7.75;;;20.90;99.90;;;;;;4937404;29;20031;-84
2022/10/04 11:32:01;;;;;;;13.63;7.50;;;20.90;99.90;;;;;;4954369;28;20048;-84
2022/10/04 11:34:54;;;;;;;16.08;7.82;;;21.10;99.90;;;;;;4957539;29;20039;-84
2022/10/04 11:37:42;;;;;;;18.17;8.38;;;20.90;99.90;;;;;;4951469;29;20016;-84
2022/10/04 11:40:54;;;;;;;11.27;7.32;;;20.90;99.90;;;;;;4957663;28;20027;-84
2022/10/04 11:43:39;;;;;;;12.70;7.10;;;21.00;99.90;;;;;;4937074;29;20042;-84
2022/10/04 11:46:07;;;;;;;17.73;7.72;;;21.20;99.90;;;;;;4958901;28;20480;-84
2022/10/04 11:48:41;;;;;;;12.32;7.15;;;21.20;99.90;;;;;;4946410;29;20027;-84
2022/10/04 11:51:58;;;;;;;21.02;7.75;;;21.10;99.90;;;;;;4958028;28;20574;-84
2022/10/04 11:54:44;;;;;;;15.75;7.47;;;21.20;99.90;;;;;;4879030;29;20033;-84
2022/10/04 11:57:44;;;;;;;11.73;5.75;;;21.20;99.90;;;;;;4957430;29;20419;-84
2022/10/04 12:00:14;;;;;;;15.13;5.90;;;21.20;99.90;;;;;;4956042;29;20019;-84
2022/10/04 12:03:04;;;;;;;10.95;5.93;;;21.30;99.90;;;;;;4956437;28;20063;-85
2022/10/04 12:05:56;;;;;;;7.93;4.85;;;21.40;99.90;;;;;;4952677;29;20482;-85
2022/10/04 12:08:31;;;;;;;10.13;4.22;;;21.50;99.90;;;;;;4957470;29;20023;-84
2022/10/04 12:11:09;;;;;;;12.98;4.22;;;21.40;99.90;;;;;;4957535;28;20024;-85
2022/10/04 12:14:00;;;;;;;17.17;4.90;;;21.10;99.90;;;;;;4951129;28;20035;-84
2022/10/04 12:16:45;;;;;;;11.05;4.05;;;21.10;99.90;;;;;;4954219;29;20472;-85
2022/10/04 12:19:50;;;;;;;11.65;4.32;;;21.20;99.90;;;;;;4954425;29;20559;-86
2022/10/04 12:22:52;;;;;;;8.35;2.95;;;21.30;99.90;;;;;;4952347;28;20035;-87
2022/10/04 12:25:57;;;;;;;7.43;2.75;;;21.50;99.90;;;;;;4936277;29;20417;-87
2022/10/04 12:28:54;;;;;;;8.30;3.33;;;21.80;99.90;;;;;;4953412;29;20023;-87
2022/10/04 12:31:56;;;;;;;10.05;3.53;;;21.90;99.90;;;;;;4934762;29;20028;-87
2022/10/04 12:34:27;;;;;;;5.00;1.55;;;22.00;99.90;;;;;;4949016;29;20046;-87
2022/10/04 12:37:12;;;;;;;2.50;1.48;;;22.10;99.90;;;;;;4954025;29;20023;-88
2022/10/04 12:39:47;;;;;;;3.33;1.73;;;22.20;99.90;;;;;;4933590;29;20492;-88
2022/10/04 12:42:53;;;;;;;5.07;1.10;;;22.30;99.90;;;;;;4954218;29;20022;-87
2022/10/04 12:45:27;;;;;;;3.72;1.00;;;22.40;99.90;;;;;;4933768;29;20028;-85
2022/10/04 12:47:59;;;;;;;2.45;1.40;;;22.20;99.90;;;;;;4953066;29;20530;-85
2022/10/04 12:50:49;;;;;;;4.00;1.25;;;22.40;99.90;;;;;;4954166;29;20023;-86
2022/10/04 12:53:35;;;;;;;2.30;0.95;;;22.40;99.90;;;;;;4963499;28;20279;-85
2022/10/04 12:56:01;;;;;;;3.13;1.00;;;22.60;99.90;;;;;;4972970;28;20487;-85
2022/10/04 12:58:48;;;;;;;1.17;0.50;;;22.60;99.90;;;;;;4972682;28;20026;-85
2022/10/04 13:01:39;;;;;;;3.63;0.60;;;22.60;99.90;;;;;;4973229;28;20038;-84
2022/10/04 13:04:37;;;;;;;4.32;0.90;;;22.60;99.90;;;;;;4970335;28;20032;-85
2022/10/04 13:07:17;;;;;;;1.65;0.70;;;22.70;99.90;;;;;;4967378;28;20031;-85
2022/10/04 13:10:12;;;;;;;4.03;0.70;;;22.60;99.90;;;;;;4973000;28;20027;-85
2022/10/04 13:12:59;;;;;;;2.92;0.80;;;22.70;99.90;;;;;;4935556;28;20134;-85
2022/10/04 13:15:31;;;;;;;2.95;0.85;;;22.60;99.90;;;;;;4966902;28;20027;-86
2022/10/04 13:18:30;;;;;;;1.52;0.60;;;22.60;99.90;;;;;;4972484;28;20026;-86
2022/10/04 13:21:01;;;;;;;3.10;0.82;;;22.40;99.90;;;;;;4955329;28;20451;-85
2022/10/04 13:23:39;;;;;;;2.17;0.80;;;22.40;99.90;;;;;;4966490;28;20019;-86
2022/10/04 13:26:32;;;;;;;3.92;0.70;;;22.70;99.90;;;;;;4967407;28;20030;-85
2022/10/04 13:29:03;;;;;;;1.48;0.50;;;23.00;99.90;;;;;;4972508;28;20514;-85
2022/10/04 13:31:39;;;;;;;1.77;0.50;;;23.10;99.90;;;;;;4970957;28;20034;-85
2022/10/04 13:34:28;;;;;;;2.10;0.50;;;22.70;99.90;;;;;;4972353;28;20046;-85
2022/10/04 13:36:59;;;;;;;1.83;0.60;;;22.40;99.90;;;;;;4972238;28;20033;-85
2022/10/04 13:39:28;;;;;;;1.55;0.80;;;22.30;99.90;;;;;;4972285;28;20059;-85
2022/10/04 13:42:12;;;;;;;2.25;0.70;;;22.50;99.90;;;;;;4972248;28;20483;-86
2022/10/04 13:44:59;;;;;;;4.50;0.73;;;22.70;99.90;;;;;;4972469;28;20118;-85
2022/10/04 13:48:04;;;;;;;3.13;0.80;;;23.00;99.90;;;;;;4970954;28;20318;-86
2022/10/04 13:50:30;;;;;;;5.82;0.98;;;22.90;99.90;;;;;;4971106;28;20035;-85
2022/10/04 13:56:56;;;;;;;2.75;0.90;;;22.90;99.90;;;;;;4966472;28;20034;-85
2022/10/04 13:59:25;;;;;;;1.73;0.73;;;23.30;99.90;;;;;;4971775;28;20019;-85
2022/10/04 14:02:02;;;;;;;3.67;0.80;;;23.30;99.90;;;;;;4970307;28;20125;-85
2022/10/04 14:05:21;;;;;;;3.35;0.80;;;23.30;99.90;;;;;;4971803;28;20458;-85
2022/10/04 14:08:05;;;;;;;3.83;0.70;;;23.40;99.90;;;;;;4900035;29;20217;-85
2022/10/04 14:11:08;;;;;;;3.42;1.13;;;23.60;99.90;;;;;;4967430;28;20094;-86
2022/10/04 14:13:59;;;;;;;2.35;0.60;;;23.80;99.90;;;;;;4972002;28;20030;-85